CRF4 weather

Calgary / Okotoks (Rowland Field)
Calgary, Alberta, Canada

Public forecast

Using degrees Celsius for public forecast. Weather courtesy of forecast.io.

METAR (pilot weather report)

Closest report is Calgary International Airport, 21.1 nm (39.1 km) N. Retrieved 2019/06/20 12:00 UTC (23 minutes ago):

CYYC 201200Z 26007KT 9SM -RA OVC026 07/04 A2974 RMK SC8 SLP092 DENSITY ALT 3700FT

TAF (pilot weather forecast)

Closest forecast is Calgary International Airport, 21.1 nm (39.1 km) N. Retrieved 2019/06/20 12:42 UTC (0 seconds ago):

TAF CYYC 201138Z 2012/2112 29012G22KT P6SM BKN030 TEMPO 2012/2020 5SM -SHRA BR BKN020 FM202000 32010KT P6SM BKN040 TEMPO 2020/2108 P6SM -SHRA BKN020 BECMG 2102/2104 36010KT FM210800 34012KT P6SM -RA SCT015 OVC030 TEMPO 2108/2112 4SM -RA BR SCT008 OVC015 RMK NXT FCST BY 201500Z